Time;durP1;ratioP1;P1;durP2;ratioP2;P2;SDS_P1;SDS_P2;PMS_P1;PMS_P2;Temp;Humidity;BMP_temperature;BMP_pressure;BME280_temperature;BME280_humidity;BME280_pressure;Samples;Min_cycle;Max_cycle;Signal;HPM_P1;HPM_P2
2023/03/27 00:00:15;;;;;;;;;;;;;;;-0.20;73.29;101047.53;4956809;28;20019;-74
2023/03/27 00:02:41;;;;;;;;;;;;;;;-0.50;74.18;101052.97;4960830;28;20673;-73
2023/03/27 00:05:07;;;;;;;;;;;;;;;-0.42;74.01;101058.09;4961387;28;20062;-73
2023/03/27 00:07:34;;;;;;;;;;;;;;;-0.59;74.97;101065.44;4960915;28;20035;-73
2023/03/27 00:10:00;;;;;;;;;;;;;;;-0.62;75.76;101065.00;4938775;28;19961;-74
2023/03/27 00:12:26;;;;;;;;;;;;;;;-0.60;74.90;101063.03;4954416;28;19963;-74
2023/03/27 00:14:52;;;;;;;;;;;;;;;-0.72;75.67;101075.84;4945820;28;20454;-74
2023/03/27 00:17:18;;;;;;;;;;;;;;;-0.85;76.71;101076.53;4961328;28;19943;-72
2023/03/27 00:19:43;;;;;;;;;;;;;;;-0.70;76.78;101078.28;4958631;28;19952;-73
2023/03/27 00:22:09;;;;;;;;;;;;;;;-0.80;77.17;101083.06;4955649;28;19942;-73
2023/03/27 00:24:35;;;;;;;;;;;;;;;-0.73;76.34;101083.94;4961897;28;20292;-74
2023/03/27 00:27:01;;;;;;;;;;;;;;;-0.37;74.38;101084.66;4940510;28;19940;-73
2023/03/27 00:29:27;;;;;;;;;;;;;;;-0.36;75.00;101081.03;4963050;28;19964;-74
2023/03/27 00:31:52;;;;;;;;;;;;;;;-0.33;74.27;101082.50;4942175;28;20670;-73
2023/03/27 00:34:18;;;;;;;;;;;;;;;-0.42;74.35;101076.53;4959831;28;19933;-74
2023/03/27 00:36:49;;;;;;;;;;;;;;;-0.52;74.83;101076.03;4959036;28;19945;-74
2023/03/27 00:39:15;;;;;;;;;;;;;;;-0.62;75.12;101075.53;4945978;28;20012;-72
2023/03/27 00:41:41;;;;;;;;;;;;;;;-0.71;75.66;101079.28;4939129;28;19944;-73
2023/03/27 00:44:25;;;;;;;;;;;;;;;-0.83;76.04;101085.03;4951596;28;20063;-73
2023/03/27 00:46:53;;;;;;;;;;;;;;;-0.76;76.63;101086.91;4955145;28;20464;-75
2023/03/27 00:49:20;;;;;;;;;;;;;;;-0.64;75.63;101088.06;4958185;28;20043;-73
2023/03/27 00:51:46;;;;;;;;;;;;;;;-0.62;75.17;101084.22;4937077;28;19953;-73
2023/03/27 00:54:16;;;;;;;;;;;;;;;-0.56;74.91;101087.94;4955196;28;19941;-73
2023/03/27 00:56:41;;;;;;;;;;;;;;;-0.84;76.20;101093.94;4943447;28;19949;-73
2023/03/27 00:59:10;;;;;;;;;;;;;;;-0.85;76.96;101096.75;4939896;28;19956;-75
2023/03/27 01:01:36;;;;;;;;;;;;;;;-0.99;77.57;101100.22;4938953;28;19938;-73
2023/03/27 01:04:03;;;;;;;;;;;;;;;-1.04;77.59;101106.03;4953230;28;19992;-74
2023/03/27 01:06:30;;;;;;;;;;;;;;;-0.89;76.66;101103.38;4947038;28;19952;-74
2023/03/27 01:08:56;;;;;;;;;;;;;;;-0.67;76.00;101088.44;4952872;28;19954;-73
2023/03/27 01:11:32;;;;;;;;;;;;;;;-0.86;76.40;101095.94;4944622;28;19958;-73
2023/03/27 01:14:04;;;;;;;;;;;;;;;-0.73;76.19;101091.81;4942459;28;19937;-73
2023/03/27 01:16:43;;;;;;;;;;;;;;;-0.64;76.42;101088.06;4965436;28;19942;-74
2023/03/27 01:19:20;;;;;;;;;;;;;;;-0.99;77.03;101094.97;4943186;28;20029;-74
2023/03/27 01:21:49;;;;;;;;;;;;;;;-0.90;77.30;101093.84;4945759;28;19990;-75
2023/03/27 01:24:14;;;;;;;;;;;;;;;-1.16;77.77;101102.25;4961374;28;19944;-73
2023/03/27 01:27:21;;;;;;;;;;;;;;;-0.86;76.84;101098.56;4953590;28;19941;-73
2023/03/27 01:30:03;;;;;;;;;;;;;;;-0.72;76.52;101106.59;4913345;28;20424;-74
2023/03/27 01:32:48;;;;;;;;;;;;;;;-0.95;76.52;101106.72;4911022;29;19959;-74
2023/03/27 01:35:27;;;;;;;;;;;;;;;-0.76;76.45;101105.31;4963367;28;20057;-74
2023/03/27 01:38:31;;;;;;;;;;;;;;;-0.66;76.10;101111.13;4955953;28;19979;-74
2023/03/27 01:41:02;;;;;;;;;;;;;;;-0.71;76.01;101114.28;4927750;28;20399;-72
2023/03/27 01:43:27;;;;;;;;;;;;;;;-0.92;76.74;101109.00;4958656;28;19982;-75
2023/03/27 01:46:06;;;;;;;;;;;;;;;-0.90;76.87;101107.81;4944716;28;20442;-74
2023/03/27 01:48:46;;;;;;;;;;;;;;;-0.87;77.07;101110.09;4977747;28;19960;-73
2023/03/27 01:51:21;;;;;;;;;;;;;;;-0.88;77.61;101107.63;4953699;28;19961;-73
2023/03/27 01:54:16;;;;;;;;;;;;;;;-0.94;77.77;101119.72;4917704;28;20560;-75
2023/03/27 01:56:52;;;;;;;;;;;;;;;-1.06;78.35;101120.38;4948986;28;19958;-75
2023/03/27 01:59:22;;;;;;;;;;;;;;;-1.16;78.77;101121.44;4954721;28;19997;-75
2023/03/27 02:01:52;;;;;;;;;;;;;;;-1.14;79.17;101131.81;4954163;28;20006;-73
2023/03/27 02:04:20;;;;;;;;;;;;;;;-0.94;79.01;101132.84;4942141;28;19951;-74
2023/03/27 02:06:57;;;;;;;;;;;;;;;-0.60;77.74;101136.69;4934606;28;19958;-74
2023/03/27 02:09:28;;;;;;;;;;;;;;;-0.71;78.13;101134.53;4954883;28;19978;-72
2023/03/27 02:12:11;;;;;;;;;;;;;;;-0.73;78.77;101137.34;4927573;28;19966;-72
2023/03/27 02:14:45;;;;;;;;;;;;;;;-0.74;78.96;101140.97;4944288;28;19938;-73
2023/03/27 02:17:12;;;;;;;;;;;;;;;-0.74;79.12;101140.16;4958971;28;20381;-74
2023/03/27 02:19:46;;;;;;;;;;;;;;;-0.82;79.16;101141.88;4944735;28;19982;-73
2023/03/27 02:22:13;;;;;;;;;;;;;;;-0.78;79.91;101141.53;4947571;28;19944;-73
2023/03/27 02:24:45;;;;;;;;;;;;;;;-0.79;79.72;101150.41;4959429;28;19933;-73
2023/03/27 02:27:31;;;;;;;;;;;;;;;-0.88;79.95;101145.28;4955004;28;19942;-73
2023/03/27 02:29:57;;;;;;;;;;;;;;;-0.66;79.76;101147.94;4948206;28;20351;-74
2023/03/27 02:32:26;;;;;;;;;;;;;;;-0.77;79.97;101156.31;4948162;28;19967;-74
2023/03/27 02:34:58;;;;;;;;;;;;;;;-0.91;80.88;101160.59;4935614;28;19933;-73
2023/03/27 02:37:43;;;;;;;;;;;;;;;-0.74;80.50;101162.03;4949308;28;19940;-73
2023/03/27 02:40:37;;;;;;;;;;;;;;;-0.98;81.29;101168.41;4968152;28;19956;-74
2023/03/27 02:43:23;;;;;;;;;;;;;;;-0.88;81.07;101174.19;4943357;28;19940;-74
2023/03/27 02:45:56;;;;;;;;;;;;;;;-0.95;81.51;101173.31;4947386;28;20434;-73
2023/03/27 02:48:32;;;;;;;;;;;;;;;-1.06;81.62;101178.19;4945272;28;20026;-73
2023/03/27 02:51:18;;;;;;;;;;;;;;;-0.79;80.89;101174.09;4960947;28;20499;-75
2023/03/27 02:53:47;;;;;;;;;;;;;;;-0.96;81.14;101187.41;4932199;28;20365;-74
2023/03/27 02:56:15;;;;;;;;;;;;;;;-1.07;81.18;101177.38;4955857;28;21978;-71
2023/03/27 02:58:48;;;;;;;;;;;;;;;-1.06;81.27;101179.00;4964007;28;19963;-75
2023/03/27 03:01:31;;;;;;;;;;;;;;;-1.17;81.48;101189.97;4960216;28;19946;-73
2023/03/27 03:04:18;;;;;;;;;;;;;;;-0.96;81.23;101190.03;4949158;28;20319;-73
2023/03/27 03:07:05;;;;;;;;;;;;;;;-0.98;81.08;101196.50;4960922;28;19952;-73
2023/03/27 03:09:32;;;;;;;;;;;;;;;-1.02;80.70;101193.41;4970791;28;19966;-73
2023/03/27 03:11:59;;;;;;;;;;;;;;;-1.19;81.20;101194.59;4960165;28;20708;-73
2023/03/27 03:14:29;;;;;;;;;;;;;;;-1.21;81.89;101193.97;4947379;28;19938;-73
2023/03/27 03:16:54;;;;;;;;;;;;;;;-1.31;81.78;101196.03;4941128;28;19983;-73
2023/03/27 03:19:23;;;;;;;;;;;;;;;-1.34;81.72;101206.94;4965545;28;20331;-73
2023/03/27 03:21:49;;;;;;;;;;;;;;;-1.30;81.64;101203.75;4933730;28;19942;-74
2023/03/27 03:24:16;;;;;;;;;;;;;;;-0.89;80.95;101201.47;4941062;28;19944;-73
2023/03/27 03:26:43;;;;;;;;;;;;;;;-1.02;80.96;101203.09;4947061;28;19980;-73
2023/03/27 03:29:09;;;;;;;;;;;;;;;-1.03;81.03;101210.19;4960700;28;19954;-74
2023/03/27 03:31:43;;;;;;;;;;;;;;;-1.04;81.12;101213.00;4946148;28;19963;-73
2023/03/27 03:34:14;;;;;;;;;;;;;;;-1.11;81.37;101221.59;4962447;28;19937;-73
2023/03/27 03:36:43;;;;;;;;;;;;;;;-1.17;81.58;101229.41;4945727;28;19936;-73
2023/03/27 03:39:11;;;;;;;;;;;;;;;-1.28;82.32;101229.84;4948449;28;20071;-73
2023/03/27 03:41:39;;;;;;;;;;;;;;;-1.10;82.35;101235.56;4964893;28;19948;-73
2023/03/27 03:44:04;;;;;;;;;;;;;;;-1.18;81.56;101233.03;4965339;28;20592;-73
2023/03/27 03:46:30;;;;;;;;;;;;;;;-1.43;82.10;101235.88;4962661;28;19949;-75
2023/03/27 03:48:58;;;;;;;;;;;;;;;-1.50;82.55;101232.34;4947844;28;19961;-73
2023/03/27 03:51:24;;;;;;;;;;;;;;;-1.42;83.06;101242.78;4949053;28;20455;-74
2023/03/27 03:53:49;;;;;;;;;;;;;;;-1.40;83.09;101239.97;4929724;28;19950;-73
2023/03/27 03:56:15;;;;;;;;;;;;;;;-1.23;82.81;101235.38;4929050;28;19988;-74
2023/03/27 03:58:41;;;;;;;;;;;;;;;-1.18;83.00;101240.91;4960967;28;20409;-73
2023/03/27 04:01:08;;;;;;;;;;;;;;;-0.96;82.31;101247.88;4962314;28;19950;-73
2023/03/27 04:03:40;;;;;;;;;;;;;;;-1.00;83.24;101251.91;4963686;28;19945;-73
2023/03/27 04:06:07;;;;;;;;;;;;;;;-1.02;83.28;101243.34;4958536;28;19971;-74
2023/03/27 04:08:33;;;;;;;;;;;;;;;-0.92;83.30;101249.19;4945100;28;19957;-73
2023/03/27 04:11:02;;;;;;;;;;;;;;;-1.28;83.83;101256.94;4970245;28;19962;-73
2023/03/27 04:13:49;;;;;;;;;;;;;;;-1.39;84.53;101263.44;4964914;28;19936;-74
2023/03/27 04:16:46;;;;;;;;;;;;;;;-1.26;84.80;101267.28;4960942;28;19946;-75
2023/03/27 04:19:19;;;;;;;;;;;;;;;-1.31;84.79;101267.81;4951800;28;19959;-73
2023/03/27 04:21:55;;;;;;;;;;;;;;;-1.40;85.07;101272.31;4958055;28;20022;-75
2023/03/27 04:24:24;;;;;;;;;;;;;;;-1.32;85.02;101279.31;4940093;28;20043;-74
2023/03/27 04:26:50;;;;;;;;;;;;;;;-1.35;85.86;101278.84;4937460;28;19936;-74
2023/03/27 04:29:15;;;;;;;;;;;;;;;-1.33;85.71;101292.63;4956248;28;20039;-74
2023/03/27 04:31:59;;;;;;;;;;;;;;;-1.49;85.80;101277.81;4959713;28;19956;-73
2023/03/27 04:34:54;;;;;;;;;;;;;;;-1.51;86.02;101283.25;4962631;28;19934;-73
2023/03/27 04:37:47;;;;;;;;;;;;;;;-1.60;85.92;101286.94;4945280;28;19987;-74
2023/03/27 04:40:34;;;;;;;;;;;;;;;-1.60;86.26;101296.63;4963911;28;19975;-76
2023/03/27 04:43:00;;;;;;;;;;;;;;;-1.76;86.73;101301.03;4928413;28;19977;-73
2023/03/27 04:45:26;;;;;;;;;;;;;;;-1.73;86.75;101295.41;4963343;28;20444;-74
2023/03/27 04:47:53;;;;;;;;;;;;;;;-1.80;86.98;101304.16;4939488;28;19943;-74
2023/03/27 04:50:18;;;;;;;;;;;;;;;-1.71;87.44;101310.97;4956304;28;20326;-71
2023/03/27 04:52:46;;;;;;;;;;;;;;;-1.64;87.89;101317.16;4943016;28;19958;-73
2023/03/27 04:55:11;;;;;;;;;;;;;;;-1.61;87.83;101306.31;4957112;28;20396;-73
2023/03/27 04:57:40;;;;;;;;;;;;;;;-1.57;87.77;101312.84;4940340;28;19936;-72
2023/03/27 05:00:15;;;;;;;;;;;;;;;-1.54;87.84;101312.50;4938095;28;20007;-74
2023/03/27 05:02:44;;;;;;;;;;;;;;;-1.59;88.21;101309.59;4961349;28;19986;-72
2023/03/27 05:05:15;;;;;;;;;;;;;;;-1.57;88.20;101304.97;4945232;28;19940;-75
2023/03/27 05:07:45;;;;;;;;;;;;;;;-1.51;88.35;101317.41;4935149;28;19992;-74
2023/03/27 05:10:16;;;;;;;;;;;;;;;-1.50;87.99;101311.16;4958669;28;20002;-75
2023/03/27 05:12:46;;;;;;;;;;;;;;;-1.71;88.42;101321.50;4940643;28;19992;-74
2023/03/27 05:15:16;;;;;;;;;;;;;;;-1.84;88.21;101321.25;4943680;28;20031;-73
2023/03/27 05:17:45;;;;;;;;;;;;;;;-1.86;88.51;101323.25;4946251;28;20402;-73
2023/03/27 05:20:18;;;;;;;;;;;;;;;-1.84;88.64;101326.50;4958710;28;19953;-73
2023/03/27 05:22:46;;;;;;;;;;;;;;;-1.84;88.75;101331.75;4955965;28;19986;-76
2023/03/27 05:25:31;;;;;;;;;;;;;;;-1.69;89.05;101330.84;4948211;28;19939;-73
2023/03/27 05:27:58;;;;;;;;;;;;;;;-1.70;89.11;101334.44;4963770;28;19944;-74
2023/03/27 05:30:27;;;;;;;;;;;;;;;-1.56;89.34;101335.50;4961884;28;19959;-74
2023/03/27 05:33:16;;;;;;;;;;;;;;;-1.35;89.54;101347.16;4956382;28;19946;-74
2023/03/27 05:35:45;;;;;;;;;;;;;;;-1.23;89.60;101343.94;4954642;28;20052;-75
2023/03/27 05:38:12;;;;;;;;;;;;;;;-1.18;89.31;101343.41;4955073;28;19939;-73
2023/03/27 05:40:43;;;;;;;;;;;;;;;-1.13;89.36;101356.84;4962321;28;19936;-73
2023/03/27 05:43:12;;;;;;;;;;;;;;;-1.11;89.06;101354.84;4959641;28;20015;-73
2023/03/27 05:45:38;;;;;;;;;;;;;;;-0.92;88.61;101356.97;4957756;28;19934;-74
2023/03/27 05:48:04;;;;;;;;;;;;;;;-0.84;89.01;101361.34;4944425;28;19965;-76
2023/03/27 05:50:36;;;;;;;;;;;;;;;-0.71;88.75;101360.72;4961051;28;20023;-73
2023/03/27 05:53:08;;;;;;;;;;;;;;;-0.50;88.30;101366.06;4942022;28;19940;-74
2023/03/27 05:55:37;;;;;;;;;;;;;;;-0.64;88.50;101359.00;4979360;28;19940;-73
2023/03/27 05:58:05;;;;;;;;;;;;;;;-0.49;88.07;101359.00;4930519;28;20032;-73
2023/03/27 06:00:33;;;;;;;;;;;;;;;-0.38;87.85;101356.75;4979952;28;20045;-74
2023/03/27 06:03:02;;;;;;;;;;;;;;;-0.18;87.91;101364.06;4949306;28;19976;-73
2023/03/27 06:05:58;;;;;;;;;;;;;;;-0.21;87.34;101362.59;4934733;28;20359;-73
2023/03/27 06:08:26;;;;;;;;;;;;;;;0.01;87.27;101367.97;4946295;28;19959;-75
2023/03/27 06:10:51;;;;;;;;;;;;;;;0.15;86.55;101367.09;4946043;28;19938;-73
2023/03/27 06:13:24;;;;;;;;;;;;;;;0.22;86.37;101371.44;4958232;28;19940;-73
2023/03/27 06:15:55;;;;;;;;;;;;;;;0.30;85.96;101370.50;4947743;28;19933;-74
2023/03/27 06:18:31;;;;;;;;;;;;;;;0.41;85.59;101370.03;4941039;28;19957;-75
2023/03/27 06:20:57;;;;;;;;;;;;;;;0.50;85.35;101381.25;4941732;28;19956;-74
2023/03/27 06:23:24;;;;;;;;;;;;;;;0.62;84.64;101379.75;4945279;28;20025;-73
2023/03/27 06:25:51;;;;;;;;;;;;;;;0.84;84.41;101374.47;4946797;28;20088;-73
2023/03/27 06:28:21;;;;;;;;;;;;;;;0.94;84.15;101378.41;4958915;28;19938;-73
2023/03/27 06:30:47;;;;;;;;;;;;;;;0.99;83.58;101389.19;4961601;28;20392;-73
2023/03/27 06:33:39;;;;;;;;;;;;;;;1.19;82.98;101386.72;4953665;28;20027;-73
2023/03/27 06:36:08;;;;;;;;;;;;;;;1.46;82.31;101384.25;4934703;28;19981;-73
2023/03/27 06:38:36;;;;;;;;;;;;;;;1.49;81.42;101397.91;4955067;28;19951;-73
2023/03/27 06:41:03;;;;;;;;;;;;;;;1.51;81.02;101395.06;4963591;28;19936;-72
2023/03/27 06:43:55;;;;;;;;;;;;;;;1.46;80.50;101392.19;4960233;28;19941;-75
2023/03/27 06:46:36;;;;;;;;;;;;;;;1.63;80.39;101401.44;4949206;28;19939;-73
2023/03/27 06:49:42;;;;;;;;;;;;;;;1.75;79.84;101405.13;4965299;28;19997;-73
2023/03/27 06:52:13;;;;;;;;;;;;;;;1.97;78.68;101405.06;4948687;28;20024;-71
2023/03/27 06:54:39;;;;;;;;;;;;;;;2.18;78.32;101412.88;4954773;28;19934;-72
2023/03/27 06:57:05;;;;;;;;;;;;;;;2.33;76.90;101407.44;4944760;28;20347;-74
2023/03/27 06:59:43;;;;;;;;;;;;;;;2.76;76.70;101410.56;4959091;28;20004;-71
2023/03/27 07:02:10;;;;;;;;;;;;;;;3.16;75.26;101413.25;4935463;28;19942;-73
2023/03/27 07:05:14;;;;;;;;;;;;;;;3.50;74.11;101420.13;4968751;28;20681;-73
2023/03/27 07:07:41;;;;;;;;;;;;;;;3.08;74.09;101439.91;4959343;28;20039;-73
2023/03/27 07:10:07;;;;;;;;;;;;;;;2.68;74.23;101447.78;4955049;28;19972;-72
2023/03/27 07:12:33;;;;;;;;;;;;;;;2.27;77.57;101442.59;4945226;28;20356;-72
2023/03/27 07:14:59;;;;;;;;;;;;;;;1.97;79.80;101442.06;4964323;28;19943;-73
2023/03/27 07:17:27;;;;;;;;;;;;;;;1.75;81.49;101442.13;4961511;28;19938;-72
2023/03/27 07:19:55;;;;;;;;;;;;;;;1.57;82.39;101450.56;4946171;28;19972;-73
2023/03/27 07:22:25;;;;;;;;;;;;;;;1.59;81.60;101458.28;4948760;28;20018;-73
2023/03/27 07:24:51;;;;;;;;;;;;;;;1.89;81.17;101457.03;4962167;28;20428;-73
2023/03/27 07:27:17;;;;;;;;;;;;;;;2.19;80.24;101456.78;4962100;28;20059;-72
2023/03/27 07:29:44;;;;;;;;;;;;;;;2.79;79.18;101449.88;4961878;28;19963;-72
2023/03/27 07:32:14;;;;;;;;;;;;;;;3.10;78.26;101459.06;4953466;28;19956;-72
2023/03/27 07:34:46;;;;;;;;;;;;;;;2.92;76.82;101462.31;4962605;28;19950;-73
2023/03/27 07:37:31;;;;;;;;;;;;;;;2.99;75.20;101457.84;4965821;28;20052;-73
2023/03/27 07:40:35;;;;;;;;;;;;;;;3.22;75.32;101457.44;4955634;28;19941;-73
2023/03/27 07:43:20;;;;;;;;;;;;;;;3.41;73.28;101456.63;4960870;28;20737;-73
2023/03/27 07:45:48;;;;;;;;;;;;;;;3.73;72.31;101446.19;4954791;28;20036;-75
2023/03/27 07:48:17;;;;;;;;;;;;;;;3.88;68.88;101452.06;4960959;28;20104;-73
2023/03/27 07:50:44;;;;;;;;;;;;;;;3.61;69.64;101453.97;4961894;28;19935;-74
2023/03/27 07:53:13;;;;;;;;;;;;;;;3.46;70.35;101454.19;4958613;28;19938;-73
2023/03/27 07:55:43;;;;;;;;;;;;;;;3.88;70.86;101456.56;4950966;28;20458;-73
2023/03/27 07:58:09;;;;;;;;;;;;;;;3.92;69.02;101455.09;4963165;28;19930;-74
2023/03/27 08:00:37;;;;;;;;;;;;;;;4.06;68.12;101459.34;4955871;28;19948;-74
2023/03/27 08:03:13;;;;;;;;;;;;;;;4.46;66.41;101454.69;4936912;28;19979;-74
2023/03/27 08:05:44;;;;;;;;;;;;;;;4.55;64.13;101458.75;4926665;28;19961;-74
2023/03/27 08:08:13;;;;;;;;;;;;;;;4.76;65.94;101465.56;4953830;28;20142;-74
2023/03/27 08:11:01;;;;;;;;;;;;;;;4.80;66.39;101471.25;4972418;28;19964;-74
2023/03/27 08:13:31;;;;;;;;;;;;;;;4.92;65.47;101474.84;4942971;28;19933;-74
2023/03/27 08:16:16;;;;;;;;;;;;;;;4.81;63.12;101471.06;4943997;28;19938;-74
2023/03/27 08:18:42;;;;;;;;;;;;;;;4.51;62.45;101478.75;4956524;28;19956;-74
2023/03/27 08:21:10;;;;;;;;;;;;;;;4.71;64.52;101485.81;4941813;28;19929;-74
2023/03/27 08:23:37;;;;;;;;;;;;;;;4.96;61.92;101486.69;4955866;28;19937;-74
2023/03/27 08:26:21;;;;;;;;;;;;;;;4.83;63.12;101482.28;4965568;28;19967;-75
2023/03/27 08:28:55;;;;;;;;;;;;;;;5.00;62.82;101487.88;4965123;28;20968;-73
2023/03/27 08:31:22;;;;;;;;;;;;;;;5.14;62.58;101486.75;4963285;28;19961;-73
2023/03/27 08:33:48;;;;;;;;;;;;;;;5.12;60.94;101480.84;4956092;28;19966;-75
2023/03/27 08:36:21;;;;;;;;;;;;;;;5.25;61.77;101489.75;4941227;28;19946;-74
2023/03/27 08:38:50;;;;;;;;;;;;;;;5.66;59.46;101487.34;4946304;28;19953;-74
2023/03/27 08:41:37;;;;;;;;;;;;;;;5.69;58.28;101486.94;4946421;28;19942;-74
2023/03/27 08:44:20;;;;;;;;;;;;;;;5.64;58.27;101492.09;4938862;28;19954;-74
2023/03/27 08:46:49;;;;;;;;;;;;;;;5.53;58.78;101494.63;4957434;28;19940;-74
2023/03/27 08:49:16;;;;;;;;;;;;;;;5.20;58.28;101488.53;4960668;28;20038;-74
2023/03/27 08:52:05;;;;;;;;;;;;;;;5.52;59.25;101503.63;4961383;28;19957;-72
2023/03/27 08:54:32;;;;;;;;;;;;;;;5.84;59.50;101505.19;4953860;28;19946;-73
2023/03/27 08:56:58;;;;;;;;;;;;;;;5.89;56.66;101505.34;4958704;28;19938;-73
2023/03/27 08:59:26;;;;;;;;;;;;;;;5.93;56.09;101501.25;4950757;28;19955;-72
2023/03/27 09:02:10;;;;;;;;;;;;;;;6.54;56.47;101515.50;4951976;28;19943;-72
2023/03/27 09:04:55;;;;;;;;;;;;;;;6.37;53.75;101509.13;4961226;28;20006;-72
2023/03/27 09:07:26;;;;;;;;;;;;;;;6.62;55.88;101512.53;4943874;28;21160;-74
2023/03/27 09:10:09;;;;;;;;;;;;;;;6.68;54.30;101503.66;4934898;28;19963;-70
2023/03/27 09:12:59;;;;;;;;;;;;;;;5.90;56.40;101506.97;4973168;28;20048;-73
2023/03/27 09:15:33;;;;;;;;;;;;;;;5.96;58.19;101511.44;4974862;28;19971;-73
2023/03/27 09:18:18;;;;;;;;;;;;;;;5.95;58.43;101523.09;4954956;28;20033;-74
2023/03/27 09:20:47;;;;;;;;;;;;;;;5.92;59.45;101522.72;4960116;28;19935;-74
2023/03/27 09:23:27;;;;;;;;;;;;;;;6.35;58.13;101522.69;4947633;28;19952;-73
2023/03/27 09:26:31;;;;;;;;;;;;;;;6.17;57.07;101528.81;4957296;28;19937;-74
2023/03/27 09:29:11;;;;;;;;;;;;;;;6.86;55.51;101528.63;4953811;28;19988;-73
2023/03/27 09:31:45;;;;;;;;;;;;;;;7.20;54.08;101519.13;4956543;28;19985;-73
2023/03/27 09:34:13;;;;;;;;;;;;;;;6.90;53.24;101532.44;4959718;28;19946;-73
2023/03/27 09:36:40;;;;;;;;;;;;;;;6.34;53.63;101525.56;4958908;28;19959;-74
2023/03/27 09:39:11;;;;;;;;;;;;;;;5.95;54.62;101535.56;4947341;28;19979;-74
2023/03/27 09:41:36;;;;;;;;;;;;;;;5.81;56.60;101528.72;4964507;28;19948;-73
2023/03/27 09:44:09;;;;;;;;;;;;;;;6.00;53.34;101536.53;4963061;28;20334;-74
2023/03/27 09:46:43;;;;;;;;;;;;;;;6.29;54.80;101534.19;4965877;28;19937;-73
2023/03/27 09:49:13;;;;;;;;;;;;;;;5.72;56.16;101534.31;4941060;28;19953;-73
2023/03/27 09:51:44;;;;;;;;;;;;;;;6.06;57.73;101524.22;4959547;28;19970;-73
2023/03/27 09:54:52;;;;;;;;;;;;;;;6.56;55.54;101534.72;4957129;28;19938;-73
2023/03/27 09:57:21;;;;;;;;;;;;;;;6.41;53.85;101537.75;4945505;28;19936;-74
2023/03/27 09:59:54;;;;;;;;;;;;;;;6.48;54.11;101537.69;4962370;28;19966;-73
2023/03/27 10:02:22;;;;;;;;;;;;;;;6.72;52.93;101534.13;4957631;28;20284;-73
2023/03/27 10:05:11;;;;;;;;;;;;;;;6.41;53.06;101540.41;4933890;29;19950;-73
2023/03/27 10:07:38;;;;;;;;;;;;;;;6.04;53.25;101550.22;4953860;28;20421;-73
2023/03/27 10:10:18;;;;;;;;;;;;;;;6.47;56.46;101554.69;4956209;28;19989;-73
2023/03/27 10:13:03;;;;;;;;;;;;;;;6.48;53.07;101548.31;4959435;28;20005;-73
2023/03/27 10:15:37;;;;;;;;;;;;;;;6.36;53.02;101540.25;4972773;28;20031;-74
2023/03/27 10:18:22;;;;;;;;;;;;;;;6.74;54.71;101548.00;4954396;28;20528;-72
2023/03/27 10:20:53;;;;;;;;;;;;;;;7.30;50.78;101546.81;4947683;28;19935;-73
2023/03/27 10:23:25;;;;;;;;;;;;;;;7.86;50.38;101545.53;4962358;28;20407;-72
2023/03/27 10:25:51;;;;;;;;;;;;;;;8.06;49.55;101549.66;4958104;28;19975;-71
2023/03/27 10:28:21;;;;;;;;;;;;;;;7.31;48.97;101548.44;4945572;28;19932;-70
2023/03/27 10:31:22;;;;;;;;;;;;;;;7.89;47.35;101552.22;4957767;28;19959;-74
2023/03/27 10:33:53;;;;;;;;;;;;;;;8.35;47.46;101554.09;4954081;28;20029;-73
2023/03/27 10:36:45;;;;;;;;;;;;;;;8.58;45.76;101563.91;4942458;28;19937;-73
2023/03/27 10:39:14;;;;;;;;;;;;;;;7.28;47.67;101559.56;4940162;28;19959;-73
2023/03/27 10:42:01;;;;;;;;;;;;;;;6.91;48.05;101555.34;4947710;28;19940;-72
2023/03/27 10:44:27;;;;;;;;;;;;;;;6.47;47.75;101560.00;4981163;28;19983;-73
2023/03/27 10:46:56;;;;;;;;;;;;;;;6.00;49.98;101572.97;4965856;28;19949;-73
2023/03/27 10:49:27;;;;;;;;;;;;;;;5.60;52.11;101605.16;4961917;28;19963;-73
2023/03/27 10:52:03;;;;;;;;;;;;;;;4.65;58.17;101636.84;4963647;28;20310;-73
2023/03/27 10:54:42;;;;;;;;;;;;;;;3.68;62.32;101652.63;4942128;28;19940;-72
2023/03/27 10:57:34;;;;;;;;;;;;;;;2.89;67.33;101684.94;4952276;28;19936;-72
2023/03/27 11:00:10;;;;;;;;;;;;;;;1.95;74.91;101703.75;4966909;28;19962;-72
2023/03/27 11:02:51;;;;;;;;;;;;;;;1.00;79.67;101703.91;4954926;28;20452;-72
2023/03/27 11:05:20;;;;;;;;;;;;;;;0.68;83.25;101687.47;4959309;28;19948;-72
2023/03/27 11:07:52;;;;;;;;;;;;;;;0.60;83.86;101690.16;4962809;28;19939;-71
2023/03/27 11:10:23;;;;;;;;;;;;;;;0.45;85.42;101676.97;4961702;28;19961;-72
2023/03/27 11:13:01;;;;;;;;;;;;;;;1.37;85.92;101668.66;4941525;28;19959;-72
2023/03/27 11:15:56;;;;;;;;;;;;;;;1.67;84.30;101666.72;4960815;28;19947;-72
2023/03/27 11:18:44;;;;;;;;;;;;;;;2.13;83.72;101669.78;4961535;28;20473;-72
2023/03/27 11:21:12;;;;;;;;;;;;;;;2.67;81.67;101665.69;4943038;28;20006;-72
2023/03/27 11:23:51;;;;;;;;;;;;;;;3.22;80.54;101661.25;4958347;28;20017;-72
2023/03/27 11:26:29;;;;;;;;;;;;;;;3.18;80.83;101652.06;4942305;28;19990;-72
2023/03/27 11:29:02;;;;;;;;;;;;;;;3.48;79.02;101657.88;4943105;28;20652;-72
2023/03/27 11:31:45;;;;;;;;;;;;;;;3.91;78.01;101661.00;4958343;28;20019;-71
2023/03/27 11:34:19;;;;;;;;;;;;;;;3.61;78.39;101654.44;4942851;28;20508;-72
2023/03/27 11:37:00;;;;;;;;;;;;;;;4.01;79.54;101657.97;4953771;28;20417;-72
2023/03/27 11:39:38;;;;;;;;;;;;;;;4.33;75.16;101659.75;4947715;28;20438;-71
2023/03/27 11:42:22;;;;;;;;;;;;;;;4.30;72.71;101662.03;4938677;28;19943;-71
2023/03/27 11:44:49;;;;;;;;;;;;;;;4.78;73.06;101661.72;4961217;28;19964;-71
2023/03/27 11:48:02;;;;;;;;;;;;;;;4.83;72.86;101662.75;4972960;28;19930;-71
2023/03/27 11:50:40;;;;;;;;;;;;;;;4.64;70.80;101659.13;4937433;28;19935;-71
2023/03/27 11:53:05;;;;;;;;;;;;;;;4.76;70.03;101661.13;4945768;28;20318;-71
2023/03/27 11:56:10;;;;;;;;;;;;;;;4.22;71.26;101676.31;4954686;28;19936;-72
2023/03/27 11:58:59;;;;;;;;;;;;;;;3.26;76.11;101687.16;4961311;28;19953;-72
2023/03/27 12:01:28;;;;;;;;;;;;;;;2.91;77.61;101689.03;4962081;28;19937;-74
2023/03/27 12:04:05;;;;;;;;;;;;;;;2.75;79.07;101678.75;4944292;28;19942;-74
2023/03/27 12:07:25;;;;;;;;;;;;;;;2.73;81.05;101680.78;4949427;28;19937;-72
2023/03/27 12:10:11;;;;;;;;;;;;;;;2.77;81.24;101676.72;4955238;28;19954;-72
2023/03/27 12:13:18;;;;;;;;;;;;;;;3.14;78.81;101677.31;4968565;28;19994;-72
2023/03/27 12:16:02;;;;;;;;;;;;;;;3.21;77.18;101668.38;4952331;28;19940;-72
2023/03/27 12:18:48;;;;;;;;;;;;;;;3.38;77.22;101658.25;4958880;28;20003;-71
2023/03/27 12:21:33;;;;;;;;;;;;;;;3.79;77.10;101649.38;4933273;28;19950;-71
2023/03/27 12:24:41;;;;;;;;;;;;;;;4.76;75.43;101656.63;4977990;28;19938;-71
2023/03/27 12:27:36;;;;;;;;;;;;;;;5.24;68.98;101658.09;4961520;28;20789;-71
2023/03/27 12:30:27;;;;;;;;;;;;;;;5.78;68.87;101648.78;4961516;28;19957;-71
2023/03/27 12:32:58;;;;;;;;;;;;;;;6.34;66.64;101650.59;4955567;28;19952;-74
2023/03/27 12:35:25;;;;;;;;;;;;;;;6.52;65.17;101643.47;4947343;28;19936;-72
2023/03/27 12:38:02;;;;;;;;;;;;;;;7.02;62.13;101634.50;4933893;29;20413;-72
2023/03/27 12:40:31;;;;;;;;;;;;;;;7.15;63.13;101631.66;4976846;28;19946;-72
2023/03/27 12:43:09;;;;;;;;;;;;;;;7.85;60.49;101629.22;4960411;28;19948;-73
2023/03/27 12:45:36;;;;;;;;;;;;;;;7.66;57.30;101625.84;4938752;28;19938;-71
2023/03/27 12:48:11;;;;;;;;;;;;;;;8.06;56.44;101630.53;4938407;28;20008;-73
2023/03/27 12:50:50;;;;;;;;;;;;;;;8.70;56.94;101647.47;4960809;28;20375;-73
2023/03/27 12:53:25;;;;;;;;;;;;;;;8.83;56.45;101634.91;4942973;28;19951;-73
2023/03/27 12:56:15;;;;;;;;;;;;;;;8.27;57.29;101613.13;4957300;28;19943;-72
2023/03/27 12:58:42;;;;;;;;;;;;;;;8.00;54.71;101610.13;4960459;28;19960;-73
2023/03/27 13:01:33;;;;;;;;;;;;;;;8.48;56.56;101617.91;4957048;28;20042;-73
2023/03/27 13:04:19;;;;;;;;;;;;;;;8.84;54.71;101607.97;4958939;28;19938;-74
2023/03/27 13:06:54;;;;;;;;;;;;;;;8.25;54.77;101609.88;4937714;28;20010;-72
2023/03/27 13:09:36;;;;;;;;;;;;;;;7.11;57.98;101603.84;4950736;28;19954;-71
2023/03/27 13:12:12;;;;;;;;;;;;;;;6.86;60.70;101616.47;4963067;28;20408;-73
2023/03/27 13:14:48;;;;;;;;;;;;;;;5.40;66.01;101652.28;4944927;28;19935;-73
2023/03/27 13:17:40;;;;;;;;;;;;;;;4.64;68.71;101637.88;4958431;28;19968;-73
2023/03/27 13:20:15;;;;;;;;;;;;;;;4.25;69.14;101632.66;4957834;28;19953;-74